createdAt,value
2017-11-09T00:00:50.058Z,95.57
2017-11-09T00:02:01.432Z,95.82
2017-11-09T00:03:08.458Z,95.47
2017-11-09T00:04:19.893Z,95.42
2017-11-09T00:05:31.373Z,95.62
2017-11-09T00:06:37.099Z,96.06
2017-11-09T00:07:43.207Z,96.08
2017-11-09T00:08:49.298Z,95.95
2017-11-09T00:09:55.726Z,96.26
2017-11-09T00:11:01.619Z,96.17
2017-11-09T00:12:07.723Z,95.45
2017-11-09T00:13:14.770Z,95.37
2017-11-09T00:14:25.001Z,95.69
2017-11-09T00:15:31.144Z,96.46
2017-11-09T00:16:36.887Z,96.55
2017-11-09T00:17:43.010Z,96.96
2017-11-09T00:18:48.926Z,97.28
2017-11-09T00:19:55.056Z,98.09
2017-11-09T00:21:01.177Z,98.18
2017-11-09T00:22:07.243Z,98.04
2017-11-09T00:23:15.965Z,97.98
2017-11-09T00:24:22.118Z,97.65
2017-11-09T00:25:28.043Z,97.86
2017-11-09T00:26:34.133Z,97.79
2017-11-09T00:27:40.214Z,97.69
2017-11-09T00:28:48.113Z,97.64
2017-11-09T00:29:54.232Z,97.17
2017-11-09T00:31:00.301Z,97.45
2017-11-09T00:32:06.413Z,97.46
2017-11-09T00:33:12.480Z,97.39
2017-11-09T00:34:18.594Z,97.47
2017-11-09T00:35:24.723Z,97.64
2017-11-09T00:36:30.854Z,97.37
2017-11-09T00:37:36.945Z,97.54
2017-11-09T00:38:43.082Z,97.36
2017-11-09T00:39:51.242Z,97.47
2017-11-09T00:40:57.332Z,97.40
2017-11-09T00:42:03.410Z,97.15
2017-11-09T00:43:09.501Z,96.78
2017-11-09T00:44:15.626Z,96.45
2017-11-09T00:45:21.723Z,96.62
2017-11-09T00:46:27.807Z,96.59
2017-11-09T00:47:33.885Z,96.60
2017-11-09T00:48:40.016Z,96.16
2017-11-09T00:49:46.136Z,96.07
2017-11-09T00:50:52.237Z,95.90
2017-11-09T00:51:58.314Z,96.13
2017-11-09T00:53:04.391Z,96.15
2017-11-09T00:54:15.709Z,96.23
2017-11-09T00:55:21.819Z,96.00
2017-11-09T00:56:28.085Z,95.45
2017-11-09T00:57:34.202Z,95.17
2017-11-09T00:58:40.333Z,95.23
2017-11-09T00:59:46.461Z,95.23
2017-11-09T01:00:51.839Z,95.20
2017-11-09T01:01:57.934Z,94.93
2017-11-09T01:03:03.641Z,94.89
2017-11-09T01:04:09.520Z,94.88
2017-11-09T01:05:15.669Z,94.92
2017-11-09T01:06:21.530Z,95.31
2017-11-09T01:07:27.692Z,96.25
2017-11-09T01:08:33.767Z,96.45
2017-11-09T01:09:39.876Z,96.64
2017-11-09T01:10:45.937Z,96.94
2017-11-09T01:11:52.013Z,96.68
2017-11-09T01:12:58.095Z,96.31
2017-11-09T01:14:04.203Z,96.07
2017-11-09T01:15:10.306Z,96.49
2017-11-09T01:16:16.378Z,96.50
2017-11-09T01:17:22.455Z,96.38
2017-11-09T01:18:28.548Z,96.05
2017-11-09T01:19:34.612Z,96.11
2017-11-09T01:20:40.481Z,96.43
2017-11-09T01:21:46.581Z,96.29
2017-11-09T01:22:52.662Z,96.19
2017-11-09T01:23:58.752Z,96.07
2017-11-09T01:25:04.544Z,95.96
2017-11-09T01:26:11.477Z,95.99
2017-11-09T01:27:17.552Z,95.88
2017-11-09T01:28:23.447Z,95.99
2017-11-09T01:29:29.544Z,96.05
2017-11-09T01:30:35.649Z,95.90
2017-11-09T01:31:41.741Z,95.80
2017-11-09T01:32:47.845Z,95.50
2017-11-09T01:33:53.914Z,95.72
2017-11-09T01:35:00.020Z,95.66
2017-11-09T01:36:06.110Z,95.47
2017-11-09T01:37:12.236Z,95.49
2017-11-09T01:38:18.317Z,95.42
2017-11-09T01:39:24.437Z,95.55
2017-11-09T01:40:30.515Z,95.55
2017-11-09T01:41:36.612Z,95.67
2017-11-09T01:42:42.688Z,95.91
2017-11-09T01:43:48.776Z,95.63
2017-11-09T01:44:54.488Z,95.71
2017-11-09T01:46:00.592Z,95.77
2017-11-09T01:47:07.368Z,95.94
2017-11-09T01:48:13.117Z,96.43
2017-11-09T01:49:19.218Z,96.44
2017-11-09T01:50:25.289Z,96.31
2017-11-09T01:51:31.387Z,96.15
2017-11-09T01:52:37.475Z,96.13
2017-11-09T01:53:44.479Z,96.31
2017-11-09T01:54:52.094Z,96.02
2017-11-09T01:55:58.226Z,96.11
2017-11-09T01:57:03.901Z,95.90
2017-11-09T01:58:09.967Z,95.69
2017-11-09T01:59:15.807Z,96.00
2017-11-09T02:00:21.193Z,95.67
2017-11-09T02:01:31.390Z,95.67
2017-11-09T02:02:37.502Z,95.34
2017-11-09T02:03:43.599Z,95.66
2017-11-09T02:04:49.683Z,95.65
2017-11-09T02:05:55.831Z,95.86
2017-11-09T02:07:01.916Z,95.95
2017-11-09T02:08:07.985Z,96.44
2017-11-09T02:09:19.286Z,96.39
2017-11-09T02:10:25.362Z,96.85
2017-11-09T02:11:31.479Z,96.74
2017-11-09T02:12:37.552Z,96.37
2017-11-09T02:13:43.049Z,96.20
2017-11-09T02:14:49.177Z,96.16
2017-11-09T02:15:54.926Z,96.18
2017-11-09T02:17:00.994Z,96.29
2017-11-09T02:18:06.918Z,96.12
2017-11-09T02:19:12.633Z,95.90
2017-11-09T02:20:18.030Z,95.91
2017-11-09T02:21:23.784Z,95.85
2017-11-09T02:22:29.127Z,96.24
2017-11-09T02:23:34.470Z,96.16
2017-11-09T02:24:39.846Z,96.36
2017-11-09T02:25:45.569Z,96.31
2017-11-09T02:26:50.725Z,95.99
2017-11-09T02:27:56.107Z,95.91
2017-11-09T02:29:01.807Z,96.09
2017-11-09T02:30:07.189Z,96.24
2017-11-09T02:31:12.918Z,96.10
2017-11-09T02:32:18.300Z,95.93
2017-11-09T02:33:23.468Z,95.46
2017-11-09T02:34:28.846Z,95.62
2017-11-09T02:35:34.962Z,95.74
2017-11-09T02:36:40.353Z,96.01
2017-11-09T02:37:45.852Z,96.46
2017-11-09T02:38:51.956Z,96.43
2017-11-09T02:39:58.058Z,95.99
2017-11-09T02:41:03.803Z,95.83
2017-11-09T02:42:09.882Z,95.69
2017-11-09T02:43:15.965Z,96.05
2017-11-09T02:44:22.048Z,95.78
2017-11-09T02:45:27.384Z,95.58
2017-11-09T02:46:32.952Z,95.82
2017-11-09T02:47:39.041Z,95.85
2017-11-09T02:48:45.148Z,96.25
2017-11-09T02:49:50.879Z,96.69
2017-11-09T02:50:57.442Z,96.56
2017-11-09T02:52:05.094Z,95.84
2017-11-09T02:53:11.188Z,96.00
2017-11-09T02:54:28.111Z,96.10
2017-11-09T02:55:33.277Z,95.98
2017-11-09T02:56:38.435Z,96.08
2017-11-09T02:57:43.804Z,96.20
2017-11-09T02:58:49.213Z,96.41
2017-11-09T02:59:54.564Z,96.10
2017-11-09T03:01:00.341Z,95.96
2017-11-09T03:02:07.135Z,95.93
2017-11-09T03:03:13.232Z,95.98
2017-11-09T03:04:18.780Z,95.84
2017-11-09T03:05:24.860Z,95.96
2017-11-09T03:06:30.988Z,95.66
2017-11-09T03:07:36.859Z,95.38
2017-11-09T03:08:42.918Z,95.95
2017-11-09T03:09:48.992Z,95.92
2017-11-09T03:10:55.067Z,95.66
2017-11-09T03:12:01.153Z,95.58
2017-11-09T03:13:07.230Z,95.54
2017-11-09T03:14:13.319Z,96.09
2017-11-09T03:15:19.381Z,95.99
2017-11-09T03:16:25.490Z,95.80
2017-11-09T03:17:31.586Z,95.38
2017-11-09T03:18:37.299Z,95.71
2017-11-09T03:19:43.244Z,95.91
2017-11-09T03:20:49.320Z,95.57
2017-11-09T03:21:55.420Z,95.31
2017-11-09T03:23:01.507Z,95.33
2017-11-09T03:24:07.615Z,95.41
2017-11-09T03:25:14.591Z,94.77
2017-11-09T03:26:20.935Z,94.97
2017-11-09T03:27:27.683Z,94.49
2017-11-09T03:28:33.779Z,94.70
2017-11-09T03:29:39.861Z,95.45
2017-11-09T03:30:47.917Z,95.65
2017-11-09T03:31:54.038Z,95.73
2017-11-09T03:33:00.129Z,95.65
2017-11-09T03:34:06.187Z,96.00
2017-11-09T03:35:12.270Z,96.24
2017-11-09T03:36:18.353Z,96.44
2017-11-09T03:37:24.489Z,96.08
2017-11-09T03:38:30.587Z,95.75
2017-11-09T03:39:36.665Z,96.35
2017-11-09T03:40:42.352Z,96.29
2017-11-09T03:41:48.493Z,96.14
2017-11-09T03:42:54.239Z,95.85
2017-11-09T03:44:00.332Z,96.05
2017-11-09T03:45:06.073Z,95.85
2017-11-09T03:46:11.266Z,96.00
2017-11-09T03:47:16.579Z,95.98
2017-11-09T03:48:22.663Z,95.92
2017-11-09T03:49:28.748Z,95.85
2017-11-09T03:50:34.605Z,96.30
2017-11-09T03:51:39.817Z,96.74
2017-11-09T03:52:46.655Z,96.77
2017-11-09T03:53:52.737Z,96.57
2017-11-09T03:55:06.787Z,96.49
2017-11-09T03:56:12.858Z,96.29
2017-11-09T03:57:23.820Z,96.37
2017-11-09T03:58:29.912Z,96.29
2017-11-09T03:59:36.002Z,96.10
2017-11-09T04:00:42.115Z,95.61
2017-11-09T04:01:48.255Z,95.42
2017-11-09T04:02:54.402Z,95.34
2017-11-09T04:04:00.479Z,95.15
2017-11-09T04:05:06.550Z,94.65
2017-11-09T04:06:12.656Z,95.02
2017-11-09T04:07:18.754Z,95.40
2017-11-09T04:08:24.881Z,95.76
2017-11-09T04:09:30.977Z,96.02
2017-11-09T04:10:37.980Z,96.06
2017-11-09T04:11:44.065Z,95.81
2017-11-09T04:12:50.160Z,95.42
2017-11-09T04:13:56.324Z,95.19
2017-11-09T04:15:02.420Z,95.16
2017-11-09T04:16:08.490Z,95.03
2017-11-09T04:17:14.604Z,94.73
2017-11-09T04:18:20.706Z,94.94
2017-11-09T04:19:26.794Z,94.86
2017-11-09T04:20:32.561Z,95.13
2017-11-09T04:21:38.664Z,95.03
2017-11-09T04:22:44.824Z,95.02
2017-11-09T04:23:50.916Z,94.89
2017-11-09T04:24:57.013Z,94.51
2017-11-09T04:26:03.106Z,94.68
2017-11-09T04:27:10.199Z,94.88
2017-11-09T04:28:16.227Z,94.48
2017-11-09T04:29:22.315Z,94.48
2017-11-09T04:30:28.418Z,94.47
2017-11-09T04:31:34.505Z,94.92
2017-11-09T04:32:44.486Z,95.06
2017-11-09T04:33:52.574Z,95.01
2017-11-09T04:34:58.659Z,95.40
2017-11-09T04:36:04.723Z,95.29
2017-11-09T04:37:10.998Z,95.19
2017-11-09T04:38:16.934Z,94.90
2017-11-09T04:39:23.042Z,94.97
2017-11-09T04:40:29.157Z,94.97
2017-11-09T04:41:35.064Z,95.09
2017-11-09T04:42:41.176Z,95.15
2017-11-09T04:43:50.781Z,95.44
2017-11-09T04:44:56.964Z,95.84
2017-11-09T04:46:03.980Z,95.73
2017-11-09T04:47:10.053Z,95.97
2017-11-09T04:48:16.239Z,96.20
2017-11-09T04:49:22.354Z,96.28
2017-11-09T04:50:28.148Z,95.86
2017-11-09T04:51:34.247Z,95.71
2017-11-09T04:52:44.474Z,96.17
2017-11-09T04:53:50.543Z,96.08
2017-11-09T04:54:56.652Z,95.50
2017-11-09T04:56:02.747Z,95.40
2017-11-09T04:57:09.710Z,95.36
2017-11-09T04:58:15.839Z,94.76
2017-11-09T04:59:21.923Z,95.24
2017-11-09T05:00:27.999Z,95.42
2017-11-09T05:01:33.878Z,96.11
2017-11-09T05:02:39.988Z,96.16
2017-11-09T05:03:46.077Z,95.64
2017-11-09T05:04:52.135Z,95.70
2017-11-09T05:05:58.214Z,95.53
2017-11-09T05:07:04.280Z,95.45
2017-11-09T05:08:10.381Z,95.20
2017-11-09T05:09:16.580Z,95.54
2017-11-09T05:10:22.634Z,95.50
2017-11-09T05:11:28.734Z,95.46
2017-11-09T05:12:36.052Z,95.24
2017-11-09T05:13:44.387Z,95.07
2017-11-09T05:14:50.463Z,94.95
2017-11-09T05:15:56.545Z,94.83
2017-11-09T05:17:02.758Z,95.04
2017-11-09T05:18:08.851Z,94.89
2017-11-09T05:19:14.922Z,95.14
2017-11-09T05:20:20.979Z,95.91
2017-11-09T05:21:27.049Z,96.35
2017-11-09T05:22:33.208Z,97.33
2017-11-09T05:23:39.304Z,97.82
2017-11-09T05:24:45.370Z,97.57
2017-11-09T05:25:51.447Z,97.24
2017-11-09T05:26:57.542Z,96.82
2017-11-09T05:28:03.630Z,96.32
2017-11-09T05:29:09.733Z,96.22
2017-11-09T05:30:21.401Z,95.89
2017-11-09T05:31:27.473Z,95.31
2017-11-09T05:32:33.547Z,95.38
2017-11-09T05:33:39.652Z,95.63
2017-11-09T05:34:45.734Z,95.84
2017-11-09T05:35:51.796Z,95.38
2017-11-09T05:36:57.875Z,95.18
2017-11-09T05:38:04.200Z,95.16
2017-11-09T05:39:10.285Z,94.60
2017-11-09T05:40:16.340Z,94.51
2017-11-09T05:41:22.434Z,94.24
2017-11-09T05:42:28.753Z,94.05
2017-11-09T05:43:34.654Z,94.15
2017-11-09T05:44:40.282Z,94.20
2017-11-09T05:45:45.776Z,94.22
2017-11-09T05:46:52.575Z,94.49
2017-11-09T05:47:58.674Z,94.31
2017-11-09T05:49:04.398Z,94.27
2017-11-09T05:50:10.449Z,94.18
2017-11-09T05:51:16.521Z,94.67
2017-11-09T05:52:22.582Z,94.84
2017-11-09T05:53:28.704Z,94.61
2017-11-09T05:54:34.571Z,94.65
2017-11-09T05:55:40.291Z,94.67
2017-11-09T05:56:46.362Z,94.31
2017-11-09T05:57:52.439Z,94.46
2017-11-09T05:58:58.556Z,94.40
2017-11-09T06:00:04.240Z,93.98
2017-11-09T06:01:09.780Z,93.99
2017-11-09T06:02:15.509Z,93.97
2017-11-09T06:03:21.234Z,93.69
2017-11-09T06:04:27.357Z,93.55
2017-11-09T06:05:38.361Z,93.25
2017-11-09T06:06:44.086Z,93.53
2017-11-09T06:07:49.437Z,93.48
2017-11-09T06:08:55.561Z,93.43
2017-11-09T06:10:01.655Z,94.07
2017-11-09T06:11:07.365Z,94.48
2017-11-09T06:12:13.472Z,94.37
2017-11-09T06:13:19.170Z,94.53
2017-11-09T06:14:25.320Z,94.71
2017-11-09T06:15:30.982Z,95.43
2017-11-09T06:16:37.030Z,95.27
2017-11-09T06:17:43.103Z,94.94
2017-11-09T06:18:49.211Z,94.70
2017-11-09T06:19:55.308Z,95.23
2017-11-09T06:21:01.400Z,95.11
2017-11-09T06:22:07.464Z,94.94
2017-11-09T06:23:13.541Z,95.15
2017-11-09T06:24:19.632Z,95.26
2017-11-09T06:25:25.764Z,95.16
2017-11-09T06:26:32.207Z,95.33
2017-11-09T06:27:38.283Z,94.74
2017-11-09T06:28:44.375Z,94.82
2017-11-09T06:29:50.450Z,94.96
2017-11-09T06:30:56.561Z,94.95
2017-11-09T06:32:02.699Z,95.04
2017-11-09T06:33:08.790Z,94.99
2017-11-09T06:34:14.887Z,94.89
2017-11-09T06:35:20.988Z,95.34
2017-11-09T06:36:27.056Z,96.00
2017-11-09T06:37:33.151Z,96.19
2017-11-09T06:38:39.295Z,95.88
2017-11-09T06:39:45.392Z,95.50
2017-11-09T06:40:51.471Z,95.30
2017-11-09T06:41:57.553Z,95.27
2017-11-09T06:43:03.652Z,95.96
2017-11-09T06:44:09.750Z,96.15
2017-11-09T06:45:15.817Z,96.13
2017-11-09T06:46:21.935Z,96.18
2017-11-09T06:47:27.859Z,95.78
2017-11-09T06:48:33.931Z,96.03
2017-11-09T06:49:40.054Z,96.56
2017-11-09T06:50:46.158Z,96.57
2017-11-09T06:51:52.229Z,96.11
2017-11-09T06:52:58.321Z,96.34
2017-11-09T06:54:07.651Z,96.54
2017-11-09T06:55:13.936Z,96.55
2017-11-09T06:56:20.710Z,96.39
2017-11-09T06:57:26.583Z,96.13
2017-11-09T06:58:37.552Z,96.06
2017-11-09T06:59:44.256Z,96.00
2017-11-09T07:00:51.093Z,95.51
2017-11-09T07:01:57.350Z,96.33
2017-11-09T07:03:03.668Z,96.71
2017-11-09T07:04:10.006Z,97.02
2017-11-09T07:05:16.657Z,96.98
2017-11-09T07:06:22.893Z,96.43
2017-11-09T07:07:29.212Z,96.12
2017-11-09T07:08:35.641Z,96.42
2017-11-09T07:09:42.036Z,96.30
2017-11-09T07:10:48.515Z,95.91
2017-11-09T07:11:55.016Z,96.12
2017-11-09T07:13:01.348Z,96.53
2017-11-09T07:14:07.555Z,96.34
2017-11-09T07:15:13.664Z,96.12
2017-11-09T07:16:19.691Z,96.18
2017-11-09T07:17:26.182Z,96.55
2017-11-09T07:18:32.855Z,96.07
2017-11-09T07:19:39.212Z,96.19
2017-11-09T07:20:45.731Z,96.24
2017-11-09T07:21:52.118Z,96.26
2017-11-09T07:22:58.948Z,96.04
2017-11-09T07:24:04.570Z,96.52
2017-11-09T07:25:12.011Z,97.13
2017-11-09T07:26:18.639Z,96.69
2017-11-09T07:27:25.093Z,96.57
2017-11-09T07:28:31.737Z,97.11
2017-11-09T07:29:38.565Z,97.14
2017-11-09T07:30:44.544Z,97.23
2017-11-09T07:31:50.496Z,97.33
2017-11-09T07:32:56.555Z,97.17
2017-11-09T07:34:03.805Z,96.94
2017-11-09T07:35:10.597Z,97.00
2017-11-09T07:36:16.504Z,96.97
2017-11-09T07:37:23.385Z,97.38
2017-11-09T07:38:29.715Z,97.59
2017-11-09T07:39:35.711Z,97.37
2017-11-09T07:40:42.827Z,97.00
2017-11-09T07:41:49.137Z,97.16
2017-11-09T07:42:55.831Z,97.28
2017-11-09T07:44:02.475Z,97.65
2017-11-09T07:45:09.849Z,97.67
2017-11-09T07:46:16.888Z,97.66
2017-11-09T07:47:23.201Z,97.81
2017-11-09T07:48:30.093Z,97.90
2017-11-09T07:49:36.364Z,98.23
2017-11-09T07:50:42.700Z,98.43
2017-11-09T07:51:49.152Z,98.38
2017-11-09T07:52:55.436Z,98.36
2017-11-09T07:54:01.824Z,98.21
2017-11-09T07:55:08.164Z,98.05
2017-11-09T07:56:14.530Z,98.10
2017-11-09T07:57:20.735Z,97.95
2017-11-09T07:58:26.987Z,97.99
2017-11-09T07:59:33.227Z,98.37
2017-11-09T08:00:39.587Z,97.67
2017-11-09T08:01:51.780Z,97.91
2017-11-09T08:02:58.443Z,98.03
2017-11-09T08:04:04.716Z,98.16
2017-11-09T08:05:11.005Z,98.32
2017-11-09T08:06:17.293Z,98.18
2017-11-09T08:07:23.603Z,98.13
2017-11-09T08:08:29.735Z,98.05
2017-11-09T08:09:37.849Z,98.54
2017-11-09T08:10:44.163Z,98.42
2017-11-09T08:11:50.457Z,98.26
2017-11-09T08:12:56.778Z,98.13
2017-11-09T08:14:03.092Z,98.08
2017-11-09T08:15:09.402Z,98.04
2017-11-09T08:16:15.783Z,98.52
2017-11-09T08:17:22.097Z,98.24
2017-11-09T08:18:29.377Z,98.06
2017-11-09T08:19:36.224Z,97.89
2017-11-09T08:20:42.486Z,97.93
2017-11-09T08:21:49.135Z,97.74
2017-11-09T08:22:55.445Z,98.02
2017-11-09T08:24:04.312Z,97.78
2017-11-09T08:25:12.319Z,98.47
2017-11-09T08:26:22.123Z,98.77
2017-11-09T08:27:31.268Z,98.85
2017-11-09T08:28:37.498Z,98.91
2017-11-09T08:29:46.079Z,99.00
2017-11-09T08:30:55.764Z,99.13
2017-11-09T08:32:06.100Z,99.08
2017-11-09T08:33:21.957Z,99.18
2017-11-09T08:34:29.389Z,99.32
2017-11-09T08:35:35.553Z,99.33
2017-11-09T08:36:41.909Z,98.74
2017-11-09T08:37:48.608Z,98.47
2017-11-09T08:38:55.300Z,98.18
2017-11-09T08:40:01.683Z,98.37
2017-11-09T08:41:08.051Z,98.54
2017-11-09T08:42:14.319Z,98.62
2017-11-09T08:43:20.705Z,98.66
2017-11-09T08:44:27.528Z,98.83
2017-11-09T08:45:33.441Z,98.74
2017-11-09T08:46:40.151Z,97.73
2017-11-09T08:47:45.979Z,97.70
2017-11-09T08:48:52.237Z,97.39
2017-11-09T08:49:58.351Z,97.08
2017-11-09T08:51:04.513Z,97.11
2017-11-09T08:52:11.184Z,97.11
2017-11-09T08:53:17.512Z,97.33
2017-11-09T08:54:23.779Z,96.97
2017-11-09T08:55:30.193Z,97.22
2017-11-09T08:56:36.137Z,97.35
2017-11-09T08:57:44.664Z,97.08
2017-11-09T08:58:50.998Z,97.47
2017-11-09T08:59:57.733Z,97.48
2017-11-09T09:01:04.127Z,97.23
2017-11-09T09:02:10.527Z,97.04
2017-11-09T09:03:17.319Z,97.26
2017-11-09T09:04:23.614Z,97.93
2017-11-09T09:05:29.910Z,98.31
2017-11-09T09:06:36.535Z,98.37
2017-11-09T09:07:42.915Z,98.31
2017-11-09T09:08:49.335Z,97.93
2017-11-09T09:09:55.437Z,97.79
2017-11-09T09:11:01.964Z,97.93
2017-11-09T09:12:07.711Z,98.21
2017-11-09T09:13:13.868Z,98.45
2017-11-09T09:14:20.403Z,98.31
2017-11-09T09:15:26.292Z,98.81
2017-11-09T09:16:32.419Z,98.83
2017-11-09T09:17:38.535Z,98.31
2017-11-09T09:18:44.651Z,98.09
2017-11-09T09:19:50.805Z,98.30
2017-11-09T09:21:00.720Z,98.42
2017-11-09T09:22:07.123Z,98.21
2017-11-09T09:23:13.635Z,98.13
2017-11-09T09:24:38.607Z,98.40
2017-11-09T09:25:59.624Z,99.01
2017-11-09T09:27:09.974Z,99.22
2017-11-09T09:28:34.913Z,99.01
2017-11-09T09:30:07.788Z,99.03
2017-11-09T09:31:13.736Z,98.63
2017-11-09T09:32:30.392Z,98.42
2017-11-09T09:33:38.999Z,98.20
2017-11-09T09:35:04.315Z,98.08
2017-11-09T09:36:34.285Z,97.73
2017-11-09T09:37:44.688Z,97.37
2017-11-09T09:39:03.441Z,97.56
2017-11-09T09:40:12.859Z,98.10
2017-11-09T09:41:20.749Z,97.97
2017-11-09T09:42:26.710Z,97.87
2017-11-09T09:43:32.279Z,97.57
2017-11-09T09:44:38.209Z,97.60
2017-11-09T09:45:44.204Z,97.69
2017-11-09T09:46:50.137Z,97.70
2017-11-09T09:47:56.083Z,97.91
2017-11-09T09:49:02.016Z,97.59
2017-11-09T09:50:09.802Z,97.28
2017-11-09T09:51:16.711Z,97.46
2017-11-09T09:52:22.891Z,97.44
2017-11-09T09:53:29.052Z,97.22
2017-11-09T09:54:35.005Z,97.31
2017-11-09T09:55:41.180Z,97.20
2017-11-09T09:56:47.116Z,97.13
2017-11-09T09:57:53.102Z,97.28
2017-11-09T09:58:59.269Z,97.54
2017-11-09T10:00:05.260Z,97.81
2017-11-09T10:01:10.881Z,97.97
2017-11-09T10:02:17.033Z,98.10
2017-11-09T10:03:23.171Z,98.03
2017-11-09T10:04:29.100Z,97.64
2017-11-09T10:05:35.216Z,97.94
2017-11-09T10:06:42.189Z,97.47
2017-11-09T10:07:48.362Z,97.86
2017-11-09T10:08:54.484Z,98.44
2017-11-09T10:10:00.428Z,98.50
2017-11-09T10:11:06.545Z,98.42
2017-11-09T10:12:12.689Z,98.16
2017-11-09T10:13:18.831Z,98.02
2017-11-09T10:14:24.964Z,97.98
2017-11-09T10:15:31.124Z,97.47
2017-11-09T10:16:37.130Z,97.51
2017-11-09T10:17:43.259Z,97.73
2017-11-09T10:18:49.376Z,97.45
2017-11-09T10:19:56.320Z,97.51
2017-11-09T10:21:02.421Z,97.48
2017-11-09T10:22:08.584Z,97.10
2017-11-09T10:23:14.712Z,97.13
2017-11-09T10:24:20.898Z,97.17
2017-11-09T10:25:27.036Z,97.19
2017-11-09T10:26:33.168Z,97.05
2017-11-09T10:27:39.308Z,96.70
2017-11-09T10:28:45.430Z,96.89
2017-11-09T10:29:51.556Z,96.82
2017-11-09T10:30:57.685Z,96.84
2017-11-09T10:32:03.878Z,97.22
2017-11-09T10:33:10.013Z,97.52
2017-11-09T10:34:16.173Z,97.21
2017-11-09T10:35:22.304Z,97.41
2017-11-09T10:36:28.426Z,96.97
2017-11-09T10:37:34.597Z,96.74
2017-11-09T10:38:40.743Z,96.80
2017-11-09T10:39:46.890Z,97.02
2017-11-09T10:40:53.103Z,96.97
2017-11-09T10:41:59.258Z,96.79
2017-11-09T10:43:05.363Z,96.36
2017-11-09T10:44:11.522Z,96.15
2017-11-09T10:45:17.688Z,95.95
2017-11-09T10:46:23.817Z,95.31
2017-11-09T10:47:29.778Z,94.95
2017-11-09T10:48:35.528Z,95.04
2017-11-09T10:49:41.313Z,94.90
2017-11-09T10:50:47.434Z,94.81
2017-11-09T10:51:53.609Z,95.47
2017-11-09T10:53:02.579Z,95.27
2017-11-09T10:54:08.712Z,95.03
2017-11-09T10:55:14.863Z,94.56
2017-11-09T10:56:20.977Z,94.26
2017-11-09T10:57:26.802Z,93.97
2017-11-09T10:58:32.927Z,94.27
2017-11-09T10:59:39.240Z,94.01
2017-11-09T11:00:44.423Z,93.69
2017-11-09T11:01:50.005Z,93.76
2017-11-09T11:02:56.091Z,93.90
2017-11-09T11:04:02.193Z,93.60
2017-11-09T11:05:08.344Z,93.26
2017-11-09T11:06:14.518Z,93.03
2017-11-09T11:07:20.339Z,93.52
2017-11-09T11:08:26.454Z,93.57
2017-11-09T11:09:32.209Z,93.33
2017-11-09T11:10:38.324Z,93.43
2017-11-09T11:11:44.439Z,93.61
2017-11-09T11:12:50.535Z,93.53
2017-11-09T11:13:56.664Z,93.44
2017-11-09T11:15:02.833Z,93.30
2017-11-09T11:16:09.000Z,93.15
2017-11-09T11:17:15.144Z,92.99
2017-11-09T11:18:21.311Z,93.43
2017-11-09T11:19:27.444Z,93.39
2017-11-09T11:20:33.583Z,93.72
2017-11-09T11:21:39.723Z,94.16
2017-11-09T11:22:45.888Z,94.22
2017-11-09T11:23:51.995Z,94.15
2017-11-09T11:25:00.130Z,94.14
2017-11-09T11:26:06.325Z,93.83
2017-11-09T11:27:12.477Z,93.58
2017-11-09T11:28:18.714Z,93.66
2017-11-09T11:29:24.870Z,93.91
2017-11-09T11:30:31.007Z,93.82
2017-11-09T11:31:36.829Z,94.10
2017-11-09T11:32:42.983Z,94.05
2017-11-09T11:33:49.134Z,94.21
2017-11-09T11:34:55.273Z,94.36
2017-11-09T11:36:01.407Z,94.31
2017-11-09T11:37:06.854Z,94.26
2017-11-09T11:38:12.809Z,94.58
2017-11-09T11:39:18.960Z,95.19
2017-11-09T11:40:25.076Z,95.19
2017-11-09T11:41:31.246Z,94.80
2017-11-09T11:42:37.423Z,94.45
2017-11-09T11:43:46.608Z,94.31
2017-11-09T11:44:52.706Z,94.06
2017-11-09T11:45:58.833Z,94.03
2017-11-09T11:47:04.974Z,93.84
2017-11-09T11:48:11.105Z,93.63
2017-11-09T11:49:17.254Z,93.47
2017-11-09T11:50:23.425Z,93.40
2017-11-09T11:51:29.530Z,93.46
2017-11-09T11:52:35.731Z,93.23
2017-11-09T11:53:41.852Z,93.15
2017-11-09T11:54:48.025Z,93.38
2017-11-09T11:55:54.125Z,93.76
2017-11-09T11:57:00.252Z,93.74
2017-11-09T11:58:06.448Z,93.57
2017-11-09T11:59:15.852Z,93.36
2017-11-09T12:00:21.986Z,93.24
2017-11-09T12:01:28.149Z,93.29
2017-11-09T12:02:34.319Z,93.72
2017-11-09T12:03:40.435Z,93.54
2017-11-09T12:04:46.656Z,93.57
2017-11-09T12:05:52.814Z,94.11
2017-11-09T12:06:58.955Z,94.06
2017-11-09T12:08:05.165Z,94.03
2017-11-09T12:09:11.306Z,93.85
2017-11-09T12:10:22.921Z,93.62
2017-11-09T12:11:28.731Z,93.64
2017-11-09T12:12:39.971Z,93.58
2017-11-09T12:13:46.098Z,93.22
2017-11-09T12:14:52.202Z,93.20
2017-11-09T12:15:58.344Z,93.14
2017-11-09T12:17:04.528Z,93.06
2017-11-09T12:18:10.679Z,93.11
2017-11-09T12:19:16.819Z,93.14
2017-11-09T12:20:23.210Z,93.24
2017-11-09T12:21:29.195Z,93.24
2017-11-09T12:22:35.340Z,93.34
2017-11-09T12:23:41.223Z,93.26
2017-11-09T12:24:47.340Z,93.13
2017-11-09T12:25:53.518Z,93.06
2017-11-09T12:26:59.662Z,93.00
2017-11-09T12:28:05.819Z,92.88
2017-11-09T12:29:14.582Z,93.17
2017-11-09T12:30:20.756Z,93.10
2017-11-09T12:31:26.882Z,93.11
2017-11-09T12:32:33.005Z,93.09
2017-11-09T12:33:39.100Z,93.09
2017-11-09T12:34:45.236Z,92.98
2017-11-09T12:35:51.395Z,92.89
2017-11-09T12:36:57.523Z,92.81
2017-11-09T12:38:03.645Z,92.75
2017-11-09T12:39:09.776Z,92.73
2017-11-09T12:40:15.952Z,92.75
2017-11-09T12:41:22.083Z,92.74
2017-11-09T12:42:28.190Z,92.81
2017-11-09T12:43:34.375Z,93.11
2017-11-09T12:44:40.517Z,93.11
2017-11-09T12:45:46.473Z,93.12
2017-11-09T12:46:52.244Z,93.09
2017-11-09T12:47:58.164Z,92.98
2017-11-09T12:49:04.505Z,92.95
2017-11-09T12:50:10.646Z,92.89
2017-11-09T12:51:16.782Z,93.04
2017-11-09T12:52:22.908Z,93.04
2017-11-09T12:53:29.024Z,93.10
2017-11-09T12:54:35.186Z,93.04
2017-11-09T12:55:41.335Z,93.21
2017-11-09T12:56:47.465Z,93.18
2017-11-09T12:57:53.597Z,93.44
2017-11-09T12:58:59.712Z,93.32
2017-11-09T13:00:06.746Z,92.95
2017-11-09T13:01:12.860Z,93.11
2017-11-09T13:02:18.998Z,93.19
2017-11-09T13:03:25.117Z,93.18
2017-11-09T13:04:31.295Z,93.26
2017-11-09T13:05:37.426Z,93.01
2017-11-09T13:06:45.291Z,93.29
2017-11-09T13:07:51.407Z,93.12
2017-11-09T13:08:57.541Z,93.14
2017-11-09T13:10:03.655Z,93.17
2017-11-09T13:11:09.626Z,93.10
2017-11-09T13:12:15.791Z,93.49
2017-11-09T13:13:21.906Z,93.62
2017-11-09T13:14:27.846Z,93.68
2017-11-09T13:15:33.751Z,93.58
2017-11-09T13:16:39.700Z,93.51
2017-11-09T13:17:45.814Z,93.46
2017-11-09T13:18:51.757Z,93.08
2017-11-09T13:19:57.671Z,92.95
2017-11-09T13:21:03.772Z,93.35
2017-11-09T13:22:09.862Z,93.33
2017-11-09T13:23:15.959Z,92.76
2017-11-09T13:24:21.925Z,92.68
2017-11-09T13:25:28.048Z,93.00
2017-11-09T13:26:34.184Z,92.68
2017-11-09T13:27:40.316Z,92.52
2017-11-09T13:28:46.422Z,92.00
2017-11-09T13:29:52.546Z,91.92
2017-11-09T13:30:58.656Z,91.81
2017-11-09T13:32:04.560Z,91.65
2017-11-09T13:33:10.668Z,91.39
2017-11-09T13:34:25.336Z,91.53
2017-11-09T13:35:31.505Z,91.61
2017-11-09T13:36:40.489Z,91.58
2017-11-09T13:37:46.638Z,91.62
2017-11-09T13:38:52.742Z,91.62
2017-11-09T13:40:00.208Z,91.59
2017-11-09T13:41:06.317Z,91.40
2017-11-09T13:42:12.278Z,91.33
2017-11-09T13:43:18.403Z,91.26
2017-11-09T13:44:24.535Z,91.27
2017-11-09T13:45:30.671Z,91.04
2017-11-09T13:46:36.801Z,90.46
2017-11-09T13:47:42.976Z,90.24
2017-11-09T13:48:49.063Z,90.23
2017-11-09T13:49:55.197Z,90.32
2017-11-09T13:51:01.329Z,90.40
2017-11-09T13:52:07.449Z,90.51
2017-11-09T13:53:13.543Z,90.32
2017-11-09T13:54:19.678Z,90.47
2017-11-09T13:55:25.870Z,90.48
2017-11-09T13:56:32.071Z,90.58
2017-11-09T13:57:38.018Z,90.81
2017-11-09T13:58:44.183Z,90.74
2017-11-09T13:59:50.316Z,90.59
2017-11-09T14:00:56.467Z,90.50
2017-11-09T14:02:02.610Z,90.49
2017-11-09T14:03:08.777Z,90.53
2017-11-09T14:04:14.998Z,90.63
2017-11-09T14:05:24.097Z,90.59
2017-11-09T14:06:30.224Z,91.02
2017-11-09T14:07:36.346Z,90.88
2017-11-09T14:08:42.492Z,90.83
2017-11-09T14:09:48.683Z,90.42
2017-11-09T14:10:54.799Z,90.19
2017-11-09T14:12:00.741Z,90.05
2017-11-09T14:13:06.852Z,90.00
2017-11-09T14:14:12.981Z,89.99
2017-11-09T14:15:19.170Z,90.17
2017-11-09T14:16:25.124Z,89.94
2017-11-09T14:17:31.254Z,89.99